sensor_id;sensor_type;location;lat;lon;timestamp;temperature;humidity
4787;DHT22;62338;48.832;9.422;2022-12-24T00:01:18;9.20;99.90
4787;DHT22;62338;48.832;9.422;2022-12-24T00:03:20;9.20;99.90
4787;DHT22;62338;48.832;9.422;2022-12-24T00:05:22;9.30;99.90
4787;DHT22;62338;48.832;9.422;2022-12-24T00:07:24;9.20;99.90
4787;DHT22;62338;48.832;9.422;2022-12-24T00:09:26;9.20;99.90
4787;DHT22;62338;48.832;9.422;2022-12-24T00:11:28;9.20;99.90
4787;DHT22;62338;48.832;9.422;2022-12-24T00:13:29;9.20;99.90
4787;DHT22;62338;48.832;9.422;2022-12-24T00:15:31;9.20;99.90
4787;DHT22;62338;48.832;9.422;2022-12-24T00:17:33;9.30;99.90
4787;DHT22;62338;48.832;9.422;2022-12-24T00:19:35;9.30;99.90
4787;DHT22;62338;48.832;9.422;2022-12-24T00:21:37;9.30;99.90
4787;DHT22;62338;48.832;9.422;2022-12-24T00:23:39;9.30;99.90
4787;DHT22;62338;48.832;9.422;2022-12-24T00:25:41;9.40;99.90
4787;DHT22;62338;48.832;9.422;2022-12-24T00:27:43;9.40;99.90
4787;DHT22;62338;48.832;9.422;2022-12-24T00:29:45;9.40;99.90
4787;DHT22;62338;48.832;9.422;2022-12-24T00:31:47;9.40;99.90
4787;DHT22;62338;48.832;9.422;2022-12-24T00:33:49;9.30;99.90
4787;DHT22;62338;48.832;9.422;2022-12-24T00:35:51;9.30;99.90
4787;DHT22;62338;48.832;9.422;2022-12-24T00:37:53;9.30;99.90
4787;DHT22;62338;48.832;9.422;2022-12-24T00:39:55;9.30;99.90
4787;DHT22;62338;48.832;9.422;2022-12-24T00:41:57;9.30;99.90
4787;DHT22;62338;48.832;9.422;2022-12-24T00:44:05;9.30;99.90
4787;DHT22;62338;48.832;9.422;2022-12-24T00:46:07;9.30;99.90
4787;DHT22;62338;48.832;9.422;2022-12-24T00:48:09;9.30;99.90
4787;DHT22;62338;48.832;9.422;2022-12-24T00:50:10;9.30;99.90
4787;DHT22;62338;48.832;9.422;2022-12-24T00:52:12;9.30;99.90
4787;DHT22;62338;48.832;9.422;2022-12-24T00:54:14;9.30;99.90
4787;DHT22;62338;48.832;9.422;2022-12-24T00:56:16;9.20;99.90
4787;DHT22;62338;48.832;9.422;2022-12-24T00:58:18;9.20;99.90
4787;DHT22;62338;48.832;9.422;2022-12-24T01:00:19;9.20;99.90
4787;DHT22;62338;48.832;9.422;2022-12-24T01:02:21;9.20;99.90
4787;DHT22;62338;48.832;9.422;2022-12-24T01:04:23;9.20;99.90
4787;DHT22;62338;48.832;9.422;2022-12-24T01:06:44;9.10;99.90
4787;DHT22;62338;48.832;9.422;2022-12-24T01:08:49;9.10;99.90
4787;DHT22;62338;48.832;9.422;2022-12-24T01:10:52;9.10;99.90
4787;DHT22;62338;48.832;9.422;2022-12-24T01:12:54;9.20;99.90
4787;DHT22;62338;48.832;9.422;2022-12-24T01:14:56;9.20;99.90
4787;DHT22;62338;48.832;9.422;2022-12-24T01:16:57;9.20;99.90
4787;DHT22;62338;48.832;9.422;2022-12-24T01:18:59;9.20;99.90
4787;DHT22;62338;48.832;9.422;2022-12-24T01:21:02;9.20;99.90
4787;DHT22;62338;48.832;9.422;2022-12-24T01:23:04;9.20;99.90
4787;DHT22;62338;48.832;9.422;2022-12-24T01:25:07;9.20;99.90
4787;DHT22;62338;48.832;9.422;2022-12-24T01:27:09;9.30;99.90
4787;DHT22;62338;48.832;9.422;2022-12-24T01:29:10;9.20;99.90
4787;DHT22;62338;48.832;9.422;2022-12-24T01:31:17;9.10;99.90
4787;DHT22;62338;48.832;9.422;2022-12-24T01:33:20;9.10;99.90
4787;DHT22;62338;48.832;9.422;2022-12-24T01:35:22;8.90;99.90
4787;DHT22;62338;48.832;9.422;2022-12-24T01:37:24;8.80;99.90
4787;DHT22;62338;48.832;9.422;2022-12-24T01:39:26;8.80;99.90
4787;DHT22;62338;48.832;9.422;2022-12-24T01:41:29;8.70;99.90
4787;DHT22;62338;48.832;9.422;2022-12-24T01:43:50;8.60;99.90
4787;DHT22;62338;48.832;9.422;2022-12-24T01:46:00;8.50;99.90
4787;DHT22;62338;48.832;9.422;2022-12-24T01:48:04;8.50;99.90
4787;DHT22;62338;48.832;9.422;2022-12-24T01:50:15;8.40;99.90
4787;DHT22;62338;48.832;9.422;2022-12-24T01:52:21;8.40;99.90
4787;DHT22;62338;48.832;9.422;2022-12-24T01:54:33;8.40;99.90
4787;DHT22;62338;48.832;9.422;2022-12-24T01:56:41;8.40;99.90
4787;DHT22;62338;48.832;9.422;2022-12-24T01:58:47;8.40;99.90
4787;DHT22;62338;48.832;9.422;2022-12-24T02:00:51;8.40;99.90
4787;DHT22;62338;48.832;9.422;2022-12-24T02:02:54;8.30;99.90
4787;DHT22;62338;48.832;9.422;2022-12-24T02:05:18;8.30;99.90
4787;DHT22;62338;48.832;9.422;2022-12-24T02:07:21;8.30;99.90
4787;DHT22;62338;48.832;9.422;2022-12-24T02:09:24;8.30;99.90
4787;DHT22;62338;48.832;9.422;2022-12-24T02:11:26;8.20;99.90
4787;DHT22;62338;48.832;9.422;2022-12-24T02:13:28;8.20;99.90
4787;DHT22;62338;48.832;9.422;2022-12-24T02:15:41;8.20;99.90
4787;DHT22;62338;48.832;9.422;2022-12-24T02:22:53;8.20;99.90
4787;DHT22;62338;48.832;9.422;2022-12-24T02:25:27;8.20;99.90
4787;DHT22;62338;48.832;9.422;2022-12-24T02:30:14;8.10;99.90
4787;DHT22;62338;48.832;9.422;2022-12-24T02:34:27;8.10;99.90
4787;DHT22;62338;48.832;9.422;2022-12-24T02:36:43;8.10;99.90
4787;DHT22;62338;48.832;9.422;2022-12-24T02:38:57;8.10;99.90
4787;DHT22;62338;48.832;9.422;2022-12-24T02:41:17;8.10;99.90
4787;DHT22;62338;48.832;9.422;2022-12-24T02:43:26;8.10;99.90
4787;DHT22;62338;48.832;9.422;2022-12-24T02:45:31;8.10;99.90
4787;DHT22;62338;48.832;9.422;2022-12-24T02:47:34;8.10;99.90
4787;DHT22;62338;48.832;9.422;2022-12-24T02:49:37;8.10;99.90
4787;DHT22;62338;48.832;9.422;2022-12-24T02:51:39;8.10;99.90
4787;DHT22;62338;48.832;9.422;2022-12-24T02:53:41;8.10;99.90
4787;DHT22;62338;48.832;9.422;2022-12-24T02:58:09;8.10;99.90
4787;DHT22;62338;48.832;9.422;2022-12-24T03:00:17;8.00;99.90
4787;DHT22;62338;48.832;9.422;2022-12-24T03:02:29;8.00;99.90
4787;DHT22;62338;48.832;9.422;2022-12-24T03:09:40;8.00;99.90
4787;DHT22;62338;48.832;9.422;2022-12-24T03:11:55;8.00;99.90
4787;DHT22;62338;48.832;9.422;2022-12-24T03:13:58;7.90;99.90
4787;DHT22;62338;48.832;9.422;2022-12-24T03:16:05;7.90;99.90
4787;DHT22;62338;48.832;9.422;2022-12-24T03:18:09;7.90;99.90
4787;DHT22;62338;48.832;9.422;2022-12-24T03:20:15;7.90;99.90
4787;DHT22;62338;48.832;9.422;2022-12-24T03:22:19;8.00;99.90
4787;DHT22;62338;48.832;9.422;2022-12-24T03:24:23;8.00;99.90
4787;DHT22;62338;48.832;9.422;2022-12-24T03:26:25;8.00;99.90
4787;DHT22;62338;48.832;9.422;2022-12-24T03:28:29;8.00;99.90
4787;DHT22;62338;48.832;9.422;2022-12-24T03:30:32;8.00;99.90
4787;DHT22;62338;48.832;9.422;2022-12-24T03:32:34;7.90;99.90
4787;DHT22;62338;48.832;9.422;2022-12-24T03:34:36;8.00;99.90
4787;DHT22;62338;48.832;9.422;2022-12-24T03:36:37;7.90;99.90
4787;DHT22;62338;48.832;9.422;2022-12-24T03:38:40;8.00;99.90
4787;DHT22;62338;48.832;9.422;2022-12-24T03:40:41;7.90;99.90
4787;DHT22;62338;48.832;9.422;2022-12-24T03:42:43;7.90;99.90
4787;DHT22;62338;48.832;9.422;2022-12-24T03:44:45;7.90;99.90
4787;DHT22;62338;48.832;9.422;2022-12-24T03:46:47;7.80;99.90
4787;DHT22;62338;48.832;9.422;2022-12-24T03:48:49;7.80;99.90
4787;DHT22;62338;48.832;9.422;2022-12-24T03:50:51;7.80;99.90
4787;DHT22;62338;48.832;9.422;2022-12-24T03:52:53;7.80;99.90
4787;DHT22;62338;48.832;9.422;2022-12-24T03:54:55;7.80;99.90
4787;DHT22;62338;48.832;9.422;2022-12-24T03:56:57;7.80;99.90
4787;DHT22;62338;48.832;9.422;2022-12-24T03:58:59;7.80;99.90
4787;DHT22;62338;48.832;9.422;2022-12-24T04:01:01;7.90;99.90
4787;DHT22;62338;48.832;9.422;2022-12-24T04:03:03;7.90;99.90
4787;DHT22;62338;48.832;9.422;2022-12-24T04:05:05;7.90;99.90
4787;DHT22;62338;48.832;9.422;2022-12-24T04:07:08;7.90;99.90
4787;DHT22;62338;48.832;9.422;2022-12-24T04:09:09;7.90;99.90
4787;DHT22;62338;48.832;9.422;2022-12-24T04:11:14;7.90;99.90
4787;DHT22;62338;48.832;9.422;2022-12-24T04:13:16;7.90;99.90
4787;DHT22;62338;48.832;9.422;2022-12-24T04:15:17;7.90;99.90
4787;DHT22;62338;48.832;9.422;2022-12-24T04:17:19;7.90;99.90
4787;DHT22;62338;48.832;9.422;2022-12-24T04:19:21;7.90;99.90
4787;DHT22;62338;48.832;9.422;2022-12-24T04:21:23;7.90;99.90
4787;DHT22;62338;48.832;9.422;2022-12-24T04:23:25;7.90;99.90
4787;DHT22;62338;48.832;9.422;2022-12-24T04:25:27;7.90;99.90
4787;DHT22;62338;48.832;9.422;2022-12-24T04:27:29;7.90;99.90
4787;DHT22;62338;48.832;9.422;2022-12-24T04:29:31;7.90;99.90
4787;DHT22;62338;48.832;9.422;2022-12-24T04:31:33;7.90;99.90
4787;DHT22;62338;48.832;9.422;2022-12-24T04:33:35;7.80;99.90
4787;DHT22;62338;48.832;9.422;2022-12-24T04:35:40;7.80;99.90
4787;DHT22;62338;48.832;9.422;2022-12-24T04:37:42;7.80;99.90
4787;DHT22;62338;48.832;9.422;2022-12-24T04:39:44;7.80;99.90
4787;DHT22;62338;48.832;9.422;2022-12-24T04:41:46;7.80;99.90
4787;DHT22;62338;48.832;9.422;2022-12-24T04:43:48;7.80;99.90
4787;DHT22;62338;48.832;9.422;2022-12-24T04:45:50;7.80;99.90
4787;DHT22;62338;48.832;9.422;2022-12-24T04:47:52;7.70;99.90
4787;DHT22;62338;48.832;9.422;2022-12-24T04:49:53;7.70;99.90
4787;DHT22;62338;48.832;9.422;2022-12-24T04:51:55;7.70;99.90
4787;DHT22;62338;48.832;9.422;2022-12-24T04:53:57;7.70;99.90
4787;DHT22;62338;48.832;9.422;2022-12-24T04:56:00;7.70;99.90
4787;DHT22;62338;48.832;9.422;2022-12-24T04:58:02;7.70;99.90
4787;DHT22;62338;48.832;9.422;2022-12-24T05:00:04;7.70;99.90
4787;DHT22;62338;48.832;9.422;2022-12-24T05:02:07;7.60;99.90
4787;DHT22;62338;48.832;9.422;2022-12-24T05:04:09;7.60;99.90
4787;DHT22;62338;48.832;9.422;2022-12-24T05:06:15;7.60;99.90
4787;DHT22;62338;48.832;9.422;2022-12-24T05:08:17;7.60;99.90
4787;DHT22;62338;48.832;9.422;2022-12-24T05:10:19;7.60;99.90
4787;DHT22;62338;48.832;9.422;2022-12-24T05:12:20;7.60;99.90
4787;DHT22;62338;48.832;9.422;2022-12-24T05:14:22;7.50;99.90
4787;DHT22;62338;48.832;9.422;2022-12-24T05:16:24;7.50;99.90
4787;DHT22;62338;48.832;9.422;2022-12-24T05:18:26;7.60;99.90
4787;DHT22;62338;48.832;9.422;2022-12-24T05:20:28;7.50;99.90
4787;DHT22;62338;48.832;9.422;2022-12-24T05:22:30;7.60;99.90
4787;DHT22;62338;48.832;9.422;2022-12-24T05:24:50;7.60;99.90
4787;DHT22;62338;48.832;9.422;2022-12-24T05:27:10;7.60;99.90
4787;DHT22;62338;48.832;9.422;2022-12-24T05:29:12;7.60;99.90
4787;DHT22;62338;48.832;9.422;2022-12-24T05:31:14;7.50;99.90
4787;DHT22;62338;48.832;9.422;2022-12-24T05:33:16;7.50;99.90
4787;DHT22;62338;48.832;9.422;2022-12-24T05:35:18;7.50;99.90
4787;DHT22;62338;48.832;9.422;2022-12-24T05:37:19;7.50;99.90
4787;DHT22;62338;48.832;9.422;2022-12-24T05:39:21;7.50;99.90
4787;DHT22;62338;48.832;9.422;2022-12-24T05:41:23;7.50;99.90
4787;DHT22;62338;48.832;9.422;2022-12-24T05:43:25;7.50;99.90
4787;DHT22;62338;48.832;9.422;2022-12-24T05:45:27;7.40;99.90
4787;DHT22;62338;48.832;9.422;2022-12-24T05:47:29;7.40;99.90
4787;DHT22;62338;48.832;9.422;2022-12-24T05:49:31;7.40;99.90
4787;DHT22;62338;48.832;9.422;2022-12-24T05:51:33;7.40;99.90
4787;DHT22;62338;48.832;9.422;2022-12-24T05:53:35;7.30;99.90
4787;DHT22;62338;48.832;9.422;2022-12-24T05:55:37;7.30;99.90
4787;DHT22;62338;48.832;9.422;2022-12-24T05:57:39;7.30;99.90
4787;DHT22;62338;48.832;9.422;2022-12-24T05:59:41;7.30;99.90
4787;DHT22;62338;48.832;9.422;2022-12-24T06:01:43;7.20;99.90
4787;DHT22;62338;48.832;9.422;2022-12-24T06:03:47;7.20;99.90
4787;DHT22;62338;48.832;9.422;2022-12-24T06:06:00;7.20;99.90
4787;DHT22;62338;48.832;9.422;2022-12-24T06:08:02;7.10;99.90
4787;DHT22;62338;48.832;9.422;2022-12-24T06:10:05;7.10;99.90
4787;DHT22;62338;48.832;9.422;2022-12-24T06:12:07;7.10;99.90
4787;DHT22;62338;48.832;9.422;2022-12-24T06:14:09;7.10;99.90
4787;DHT22;62338;48.832;9.422;2022-12-24T06:16:12;7.10;99.90
4787;DHT22;62338;48.832;9.422;2022-12-24T06:18:14;7.10;99.90
4787;DHT22;62338;48.832;9.422;2022-12-24T06:20:16;7.10;99.90
4787;DHT22;62338;48.832;9.422;2022-12-24T06:22:18;7.10;99.90
4787;DHT22;62338;48.832;9.422;2022-12-24T06:24:20;7.10;99.90
4787;DHT22;62338;48.832;9.422;2022-12-24T06:26:22;7.10;99.90
4787;DHT22;62338;48.832;9.422;2022-12-24T06:28:24;7.10;99.90
4787;DHT22;62338;48.832;9.422;2022-12-24T06:30:26;7.10;99.90
4787;DHT22;62338;48.832;9.422;2022-12-24T06:32:27;7.00;99.90
4787;DHT22;62338;48.832;9.422;2022-12-24T06:34:29;7.00;99.90
4787;DHT22;62338;48.832;9.422;2022-12-24T06:36:31;7.00;99.90
4787;DHT22;62338;48.832;9.422;2022-12-24T06:38:33;7.10;99.90
4787;DHT22;62338;48.832;9.422;2022-12-24T06:40:37;7.10;99.90
4787;DHT22;62338;48.832;9.422;2022-12-24T06:42:39;7.10;99.90
4787;DHT22;62338;48.832;9.422;2022-12-24T06:44:40;7.20;99.90
4787;DHT22;62338;48.832;9.422;2022-12-24T06:46:42;7.10;99.90
4787;DHT22;62338;48.832;9.422;2022-12-24T06:48:45;7.10;99.90
4787;DHT22;62338;48.832;9.422;2022-12-24T06:50:47;7.10;99.90
4787;DHT22;62338;48.832;9.422;2022-12-24T06:52:49;7.10;99.90
4787;DHT22;62338;48.832;9.422;2022-12-24T06:54:51;7.10;99.90
4787;DHT22;62338;48.832;9.422;2022-12-24T06:56:52;7.10;99.90
4787;DHT22;62338;48.832;9.422;2022-12-24T06:58:58;7.10;99.90
4787;DHT22;62338;48.832;9.422;2022-12-24T07:01:09;7.10;99.90
4787;DHT22;62338;48.832;9.422;2022-12-24T07:03:11;7.10;99.90
4787;DHT22;62338;48.832;9.422;2022-12-24T07:05:13;7.10;99.90
4787;DHT22;62338;48.832;9.422;2022-12-24T07:07:15;7.10;99.90
4787;DHT22;62338;48.832;9.422;2022-12-24T07:09:16;7.20;99.90
4787;DHT22;62338;48.832;9.422;2022-12-24T07:11:19;7.20;99.90
4787;DHT22;62338;48.832;9.422;2022-12-24T07:13:21;7.30;99.90
4787;DHT22;62338;48.832;9.422;2022-12-24T07:15:22;7.30;99.90
4787;DHT22;62338;48.832;9.422;2022-12-24T07:17:24;7.30;99.90
4787;DHT22;62338;48.832;9.422;2022-12-24T07:19:26;7.30;99.90
4787;DHT22;62338;48.832;9.422;2022-12-24T07:21:28;7.30;99.90
4787;DHT22;62338;48.832;9.422;2022-12-24T07:23:30;7.40;99.90
4787;DHT22;62338;48.832;9.422;2022-12-24T07:25:32;7.40;99.90
4787;DHT22;62338;48.832;9.422;2022-12-24T07:27:34;7.40;99.90
4787;DHT22;62338;48.832;9.422;2022-12-24T07:29:35;7.40;99.90
4787;DHT22;62338;48.832;9.422;2022-12-24T07:31:37;7.50;99.90
4787;DHT22;62338;48.832;9.422;2022-12-24T07:33:39;7.40;99.90
4787;DHT22;62338;48.832;9.422;2022-12-24T07:35:41;7.40;99.90
4787;DHT22;62338;48.832;9.422;2022-12-24T07:37:43;7.50;99.90
4787;DHT22;62338;48.832;9.422;2022-12-24T07:39:44;7.50;99.90
4787;DHT22;62338;48.832;9.422;2022-12-24T07:41:46;7.50;99.90
4787;DHT22;62338;48.832;9.422;2022-12-24T07:43:49;7.50;99.90
4787;DHT22;62338;48.832;9.422;2022-12-24T07:45:54;7.40;99.90
4787;DHT22;62338;48.832;9.422;2022-12-24T07:47:56;7.40;99.90
4787;DHT22;62338;48.832;9.422;2022-12-24T07:49:57;7.50;99.90
4787;DHT22;62338;48.832;9.422;2022-12-24T07:51:59;7.50;99.90
4787;DHT22;62338;48.832;9.422;2022-12-24T07:54:01;7.40;99.90
4787;DHT22;62338;48.832;9.422;2022-12-24T07:56:05;7.40;99.90
4787;DHT22;62338;48.832;9.422;2022-12-24T07:58:13;7.40;99.90
4787;DHT22;62338;48.832;9.422;2022-12-24T08:00:15;7.40;99.90
4787;DHT22;62338;48.832;9.422;2022-12-24T08:02:17;7.40;99.90
4787;DHT22;62338;48.832;9.422;2022-12-24T08:04:19;7.40;99.90
4787;DHT22;62338;48.832;9.422;2022-12-24T08:06:21;7.40;99.90
4787;DHT22;62338;48.832;9.422;2022-12-24T08:08:24;7.50;99.90
4787;DHT22;62338;48.832;9.422;2022-12-24T08:10:25;7.50;99.90
4787;DHT22;62338;48.832;9.422;2022-12-24T08:12:28;7.50;99.90
4787;DHT22;62338;48.832;9.422;2022-12-24T08:14:30;7.50;99.90
4787;DHT22;62338;48.832;9.422;2022-12-24T08:16:32;7.60;99.90
4787;DHT22;62338;48.832;9.422;2022-12-24T08:18:34;7.60;99.90
4787;DHT22;62338;48.832;9.422;2022-12-24T08:20:38;7.60;99.90
4787;DHT22;62338;48.832;9.422;2022-12-24T08:22:40;7.60;99.90
4787;DHT22;62338;48.832;9.422;2022-12-24T08:24:41;7.70;99.90
4787;DHT22;62338;48.832;9.422;2022-12-24T08:26:43;7.70;99.90
4787;DHT22;62338;48.832;9.422;2022-12-24T08:28:45;7.70;99.90
4787;DHT22;62338;48.832;9.422;2022-12-24T08:30:48;7.80;99.90
4787;DHT22;62338;48.832;9.422;2022-12-24T08:32:50;7.80;99.90
4787;DHT22;62338;48.832;9.422;2022-12-24T08:34:52;7.80;99.90
4787;DHT22;62338;48.832;9.422;2022-12-24T08:36:54;7.90;99.90
4787;DHT22;62338;48.832;9.422;2022-12-24T08:38:56;8.00;99.90
4787;DHT22;62338;48.832;9.422;2022-12-24T08:40:58;8.10;99.90
4787;DHT22;62338;48.832;9.422;2022-12-24T08:43:00;8.20;99.90
4787;DHT22;62338;48.832;9.422;2022-12-24T08:45:03;8.20;99.90
4787;DHT22;62338;48.832;9.422;2022-12-24T08:47:05;8.20;99.90
4787;DHT22;62338;48.832;9.422;2022-12-24T08:49:07;8.20;99.90
4787;DHT22;62338;48.832;9.422;2022-12-24T08:51:10;8.10;99.90
4787;DHT22;62338;48.832;9.422;2022-12-24T08:53:12;8.10;99.90
4787;DHT22;62338;48.832;9.422;2022-12-24T08:55:13;8.00;99.90
4787;DHT22;62338;48.832;9.422;2022-12-24T08:57:15;8.00;99.90
4787;DHT22;62338;48.832;9.422;2022-12-24T08:59:17;7.90;99.90
4787;DHT22;62338;48.832;9.422;2022-12-24T09:01:20;7.90;99.90
4787;DHT22;62338;48.832;9.422;2022-12-24T09:03:22;7.90;99.90
4787;DHT22;62338;48.832;9.422;2022-12-24T09:05:28;7.90;99.90
4787;DHT22;62338;48.832;9.422;2022-12-24T09:07:30;7.90;99.90
4787;DHT22;62338;48.832;9.422;2022-12-24T09:09:32;7.90;99.90
4787;DHT22;62338;48.832;9.422;2022-12-24T09:11:38;7.90;99.90
4787;DHT22;62338;48.832;9.422;2022-12-24T09:13:41;8.10;99.90
4787;DHT22;62338;48.832;9.422;2022-12-24T09:15:52;8.10;99.90
4787;DHT22;62338;48.832;9.422;2022-12-24T09:17:54;8.20;99.90
4787;DHT22;62338;48.832;9.422;2022-12-24T09:19:56;8.20;99.90
4787;DHT22;62338;48.832;9.422;2022-12-24T09:21:58;8.30;99.90
4787;DHT22;62338;48.832;9.422;2022-12-24T09:24:02;8.40;99.90
4787;DHT22;62338;48.832;9.422;2022-12-24T09:26:11;8.50;99.90
4787;DHT22;62338;48.832;9.422;2022-12-24T09:28:14;8.60;99.90
4787;DHT22;62338;48.832;9.422;2022-12-24T09:30:16;8.60;99.90
4787;DHT22;62338;48.832;9.422;2022-12-24T09:32:17;8.70;99.90
4787;DHT22;62338;48.832;9.422;2022-12-24T09:34:20;8.90;92.60
4787;DHT22;62338;48.832;9.422;2022-12-24T09:36:30;9.50;23.60
4787;DHT22;62338;48.832;9.422;2022-12-24T09:38:33;10.30;1.00
4787;DHT22;62338;48.832;9.422;2022-12-24T09:40:37;11.10;1.00
4787;DHT22;62338;48.832;9.422;2022-12-24T09:42:52;11.40;1.00
4787;DHT22;62338;48.832;9.422;2022-12-24T09:47:38;12.20;99.90
4787;DHT22;62338;48.832;9.422;2022-12-24T09:49:43;12.80;99.90
4787;DHT22;62338;48.832;9.422;2022-12-24T09:52:04;13.50;1.00
4787;DHT22;62338;48.832;9.422;2022-12-24T09:54:40;14.00;99.90
4787;DHT22;62338;48.832;9.422;2022-12-24T09:56:51;14.60;99.90
4787;DHT22;62338;48.832;9.422;2022-12-24T09:59:02;14.80;1.00
4787;DHT22;62338;48.832;9.422;2022-12-24T10:01:04;15.20;99.90
4787;DHT22;62338;48.832;9.422;2022-12-24T10:03:14;15.30;1.00
4787;DHT22;62338;48.832;9.422;2022-12-24T10:07:40;15.20;1.00
4787;DHT22;62338;48.832;9.422;2022-12-24T10:12:07;15.30;30.80
4787;DHT22;62338;48.832;9.422;2022-12-24T10:16:42;15.40;1.00
4787;DHT22;62338;48.832;9.422;2022-12-24T10:19:01;14.40;99.90
4787;DHT22;62338;48.832;9.422;2022-12-24T10:21:27;13.30;9.40
4787;DHT22;62338;48.832;9.422;2022-12-24T10:23:48;12.90;99.90
4787;DHT22;62338;48.832;9.422;2022-12-24T10:26:07;12.30;99.60
4787;DHT22;62338;48.832;9.422;2022-12-24T10:28:26;11.90;99.90
4787;DHT22;62338;48.832;9.422;2022-12-24T10:30:30;11.80;99.90
4787;DHT22;62338;48.832;9.422;2022-12-24T10:32:35;11.80;99.90
4787;DHT22;62338;48.832;9.422;2022-12-24T10:34:48;11.60;99.90
4787;DHT22;62338;48.832;9.422;2022-12-24T10:36:51;11.60;1.00
4787;DHT22;62338;48.832;9.422;2022-12-24T10:38:53;11.70;99.90
4787;DHT22;62338;48.832;9.422;2022-12-24T10:40:58;11.70;99.90
4787;DHT22;62338;48.832;9.422;2022-12-24T10:43:01;11.70;99.90
4787;DHT22;62338;48.832;9.422;2022-12-24T10:45:06;11.50;1.00
4787;DHT22;62338;48.832;9.422;2022-12-24T10:47:09;11.30;1.00
4787;DHT22;62338;48.832;9.422;2022-12-24T10:49:16;11.30;1.00
4787;DHT22;62338;48.832;9.422;2022-12-24T10:53:52;11.10;1.00
4787;DHT22;62338;48.832;9.422;2022-12-24T10:56:06;10.80;1.00
4787;DHT22;62338;48.832;9.422;2022-12-24T10:58:18;10.60;1.00
4787;DHT22;62338;48.832;9.422;2022-12-24T11:00:22;10.40;1.00
4787;DHT22;62338;48.832;9.422;2022-12-24T11:02:36;10.20;1.00
4787;DHT22;62338;48.832;9.422;2022-12-24T11:04:46;10.10;1.00
4787;DHT22;62338;48.832;9.422;2022-12-24T11:09:16;10.00;1.00
4787;DHT22;62338;48.832;9.422;2022-12-24T11:11:20;10.00;1.00
4787;DHT22;62338;48.832;9.422;2022-12-24T11:13:27;10.10;1.00
4787;DHT22;62338;48.832;9.422;2022-12-24T11:15:40;10.10;1.00
4787;DHT22;62338;48.832;9.422;2022-12-24T11:17:42;10.10;1.00
4787;DHT22;62338;48.832;9.422;2022-12-24T11:19:53;10.00;1.00
4787;DHT22;62338;48.832;9.422;2022-12-24T11:22:04;9.90;1.00
4787;DHT22;62338;48.832;9.422;2022-12-24T11:26:20;9.90;1.00
4787;DHT22;62338;48.832;9.422;2022-12-24T11:28:26;9.90;1.00
4787;DHT22;62338;48.832;9.422;2022-12-24T11:30:31;9.90;1.00
4787;DHT22;62338;48.832;9.422;2022-12-24T11:32:34;9.80;1.00
4787;DHT22;62338;48.832;9.422;2022-12-24T11:34:35;9.80;1.00
4787;DHT22;62338;48.832;9.422;2022-12-24T11:36:37;9.80;1.00
4787;DHT22;62338;48.832;9.422;2022-12-24T11:38:39;9.80;1.00
4787;DHT22;62338;48.832;9.422;2022-12-24T11:40:43;9.80;1.00
4787;DHT22;62338;48.832;9.422;2022-12-24T11:42:47;9.80;1.00
4787;DHT22;62338;48.832;9.422;2022-12-24T11:44:49;9.90;1.00
4787;DHT22;62338;48.832;9.422;2022-12-24T11:46:53;9.90;1.00
4787;DHT22;62338;48.832;9.422;2022-12-24T11:51:22;9.80;1.00
4787;DHT22;62338;48.832;9.422;2022-12-24T11:53:44;9.80;1.00
4787;DHT22;62338;48.832;9.422;2022-12-24T11:58:12;9.70;1.00
4787;DHT22;62338;48.832;9.422;2022-12-24T12:00:16;9.70;1.00
4787;DHT22;62338;48.832;9.422;2022-12-24T12:04:30;9.60;1.00
4787;DHT22;62338;48.832;9.422;2022-12-24T12:06:40;9.60;1.00
4787;DHT22;62338;48.832;9.422;2022-12-24T12:08:44;9.60;1.00
4787;DHT22;62338;48.832;9.422;2022-12-24T12:10:48;9.60;1.00
4787;DHT22;62338;48.832;9.422;2022-12-24T12:13:10;9.60;1.00
4787;DHT22;62338;48.832;9.422;2022-12-24T12:15:20;9.60;1.00
4787;DHT22;62338;48.832;9.422;2022-12-24T12:17:29;9.60;1.00
4787;DHT22;62338;48.832;9.422;2022-12-24T12:19:52;9.60;1.00
4787;DHT22;62338;48.832;9.422;2022-12-24T12:21:57;9.60;1.00
4787;DHT22;62338;48.832;9.422;2022-12-24T12:24:05;9.60;5.90
4787;DHT22;62338;48.832;9.422;2022-12-24T12:26:19;9.60;17.00
4787;DHT22;62338;48.832;9.422;2022-12-24T12:30:33;9.50;15.30
4787;DHT22;62338;48.832;9.422;2022-12-24T12:32:56;9.60;9.90
4787;DHT22;62338;48.832;9.422;2022-12-24T12:35:12;9.70;19.90
4787;DHT22;62338;48.832;9.422;2022-12-24T12:37:34;9.70;20.80
4787;DHT22;62338;48.832;9.422;2022-12-24T12:39:37;9.80;1.00
4787;DHT22;62338;48.832;9.422;2022-12-24T12:46:40;9.80;1.00
4787;DHT22;62338;48.832;9.422;2022-12-24T12:58:39;9.70;78.20
4787;DHT22;62338;48.832;9.422;2022-12-24T13:00:44;9.80;99.90
4787;DHT22;62338;48.832;9.422;2022-12-24T13:10:44;9.80;99.90
4787;DHT22;62338;48.832;9.422;2022-12-24T13:22:17;9.60;72.10
4787;DHT22;62338;48.832;9.422;2022-12-24T13:24:26;9.60;39.00
4787;DHT22;62338;48.832;9.422;2022-12-24T13:26:29;9.60;48.40
4787;DHT22;62338;48.832;9.422;2022-12-24T13:28:32;9.70;1.00
4787;DHT22;62338;48.832;9.422;2022-12-24T13:30:39;9.70;6.00
4787;DHT22;62338;48.832;9.422;2022-12-24T13:32:52;9.70;1.00
4787;DHT22;62338;48.832;9.422;2022-12-24T13:35:21;9.80;1.00
4787;DHT22;62338;48.832;9.422;2022-12-24T13:42:05;10.00;1.00
4787;DHT22;62338;48.832;9.422;2022-12-24T13:46:45;10.50;1.00
4787;DHT22;62338;48.832;9.422;2022-12-24T13:48:47;10.90;1.00
4787;DHT22;62338;48.832;9.422;2022-12-24T13:50:51;11.30;1.00
4787;DHT22;62338;48.832;9.422;2022-12-24T13:52:53;11.50;1.00
4787;DHT22;62338;48.832;9.422;2022-12-24T13:55:03;11.50;1.00
4787;DHT22;62338;48.832;9.422;2022-12-24T13:57:27;11.30;1.00
4787;DHT22;62338;48.832;9.422;2022-12-24T13:59:38;11.10;1.00
4787;DHT22;62338;48.832;9.422;2022-12-24T14:01:41;10.80;1.00
4787;DHT22;62338;48.832;9.422;2022-12-24T14:06:09;10.40;1.00
4787;DHT22;62338;48.832;9.422;2022-12-24T14:10:30;10.10;1.00
4787;DHT22;62338;48.832;9.422;2022-12-24T14:12:47;9.90;1.00
4787;DHT22;62338;48.832;9.422;2022-12-24T14:14:49;9.90;1.00
4787;DHT22;62338;48.832;9.422;2022-12-24T14:16:51;9.90;1.00
4787;DHT22;62338;48.832;9.422;2022-12-24T14:19:02;9.80;1.00
4787;DHT22;62338;48.832;9.422;2022-12-24T14:21:06;9.80;1.00
4787;DHT22;62338;48.832;9.422;2022-12-24T14:23:26;9.80;1.00
4787;DHT22;62338;48.832;9.422;2022-12-24T14:25:29;9.70;1.00
4787;DHT22;62338;48.832;9.422;2022-12-24T14:29:50;9.70;1.00
4787;DHT22;62338;48.832;9.422;2022-12-24T14:31:55;9.60;1.00
4787;DHT22;62338;48.832;9.422;2022-12-24T14:34:10;9.60;1.00
4787;DHT22;62338;48.832;9.422;2022-12-24T14:36:17;9.50;1.00
4787;DHT22;62338;48.832;9.422;2022-12-24T14:38:19;9.40;1.00
4787;DHT22;62338;48.832;9.422;2022-12-24T14:40:28;9.40;1.00
4787;DHT22;62338;48.832;9.422;2022-12-24T14:42:36;9.40;1.00
4787;DHT22;62338;48.832;9.422;2022-12-24T14:45:06;9.30;1.00
4787;DHT22;62338;48.832;9.422;2022-12-24T14:47:20;9.30;1.00
4787;DHT22;62338;48.832;9.422;2022-12-24T14:51:37;9.30;44.70
4787;DHT22;62338;48.832;9.422;2022-12-24T14:56:20;9.10;97.10
4787;DHT22;62338;48.832;9.422;2022-12-24T14:58:35;9.00;99.90
4787;DHT22;62338;48.832;9.422;2022-12-24T15:00:37;8.90;99.90
4787;DHT22;62338;48.832;9.422;2022-12-24T15:02:50;8.80;99.90
4787;DHT22;62338;48.832;9.422;2022-12-24T15:05:25;8.60;99.90
4787;DHT22;62338;48.832;9.422;2022-12-24T15:07:31;8.40;99.90
4787;DHT22;62338;48.832;9.422;2022-12-24T15:09:33;8.30;99.90
4787;DHT22;62338;48.832;9.422;2022-12-24T15:11:38;8.20;99.90